createdAt,value
2023-04-09T00:01:04.198Z,100.00
2023-04-09T00:03:30.914Z,100.00
2023-04-09T00:05:57.593Z,100.00
2023-04-09T00:08:24.399Z,100.00
2023-04-09T00:10:54.164Z,100.00
2023-04-09T00:13:35.592Z,100.00
2023-04-09T00:16:06.038Z,100.00
2023-04-09T00:18:32.665Z,100.00
2023-04-09T00:20:59.319Z,100.00
2023-04-09T00:23:25.949Z,100.00
2023-04-09T00:25:52.654Z,100.00
2023-04-09T00:28:19.393Z,100.00
2023-04-09T00:30:46.053Z,100.00
2023-04-09T00:33:12.810Z,100.00
2023-04-09T00:35:39.507Z,100.00
2023-04-09T00:38:06.248Z,100.00
2023-04-09T00:40:33.006Z,100.00
2023-04-09T00:42:59.684Z,100.00
2023-04-09T00:45:26.426Z,100.00
2023-04-09T00:47:53.686Z,100.00
2023-04-09T00:50:21.434Z,100.00
2023-04-09T00:52:48.204Z,100.00
2023-04-09T00:55:15.286Z,100.00
2023-04-09T00:57:42.250Z,100.00
2023-04-09T01:00:09.421Z,100.00
2023-04-09T01:02:36.364Z,100.00
2023-04-09T01:05:03.826Z,100.00
2023-04-09T01:08:08.599Z,100.00
2023-04-09T01:10:38.661Z,100.00
2023-04-09T01:13:28.836Z,100.00
2023-04-09T01:15:58.562Z,100.00
2023-04-09T01:18:32.077Z,100.00
2023-04-09T01:21:18.240Z,100.00
2023-04-09T01:24:13.737Z,100.00
2023-04-09T01:26:58.707Z,100.00
2023-04-09T01:29:26.271Z,100.00
2023-04-09T01:31:54.329Z,100.00
2023-04-09T01:34:22.346Z,100.00
2023-04-09T01:36:58.277Z,100.00
2023-04-09T01:39:25.616Z,100.00
2023-04-09T01:41:53.197Z,100.00
2023-04-09T01:44:20.868Z,100.00
2023-04-09T01:46:47.744Z,100.00
2023-04-09T01:49:15.592Z,100.00
2023-04-09T01:51:42.617Z,100.00
2023-04-09T01:54:10.005Z,100.00
2023-04-09T01:56:47.639Z,100.00
2023-04-09T01:59:15.490Z,100.00
2023-04-09T02:01:55.193Z,100.00
2023-04-09T02:04:27.193Z,100.00
2023-04-09T02:07:19.616Z,100.00
2023-04-09T02:09:48.093Z,100.00
2023-04-09T02:12:18.002Z,100.00
2023-04-09T02:14:47.023Z,100.00
2023-04-09T02:17:13.704Z,100.00
2023-04-09T02:19:45.878Z,100.00
2023-04-09T02:22:13.109Z,100.00
2023-04-09T02:24:39.898Z,100.00
2023-04-09T02:27:07.280Z,100.00
2023-04-09T02:29:34.063Z,100.00
2023-04-09T02:32:00.987Z,100.00
2023-04-09T02:34:27.897Z,100.00
2023-04-09T02:36:54.671Z,100.00
2023-04-09T02:39:21.419Z,100.00
2023-04-09T02:41:48.095Z,100.00
2023-04-09T02:44:14.739Z,100.00
2023-04-09T02:46:41.679Z,100.00
2023-04-09T02:49:08.558Z,100.00
2023-04-09T02:51:35.949Z,100.00
2023-04-09T02:54:03.473Z,100.00
2023-04-09T02:56:30.097Z,100.00
2023-04-09T02:58:56.738Z,100.00
2023-04-09T03:01:23.483Z,100.00
2023-04-09T03:03:50.530Z,100.00
2023-04-09T03:06:17.627Z,100.00
2023-04-09T03:08:44.370Z,100.00
2023-04-09T03:11:11.024Z,100.00
2023-04-09T03:13:37.907Z,100.00
2023-04-09T03:16:05.187Z,100.00
2023-04-09T03:18:31.776Z,100.00
2023-04-09T03:20:58.386Z,100.00
2023-04-09T03:23:25.001Z,100.00
2023-04-09T03:26:03.674Z,100.00
2023-04-09T03:28:30.826Z,100.00
2023-04-09T03:30:57.919Z,100.00
2023-04-09T03:33:24.781Z,100.00
2023-04-09T03:35:51.895Z,100.00
2023-04-09T03:38:18.581Z,100.00
2023-04-09T03:40:45.264Z,100.00
2023-04-09T03:43:12.033Z,100.00
2023-04-09T03:45:38.653Z,100.00
2023-04-09T03:48:05.463Z,100.00
2023-04-09T03:50:32.103Z,100.00
2023-04-09T03:52:58.854Z,100.00
2023-04-09T03:55:25.443Z,100.00
2023-04-09T03:57:52.032Z,100.00
2023-04-09T04:00:20.005Z,100.00
2023-04-09T04:02:46.771Z,100.00
2023-04-09T04:05:13.676Z,100.00
2023-04-09T04:07:40.300Z,100.00
2023-04-09T04:10:07.508Z,100.00
2023-04-09T04:12:34.161Z,100.00
2023-04-09T04:15:01.610Z,100.00
2023-04-09T04:17:28.288Z,100.00
2023-04-09T04:19:55.399Z,100.00
2023-04-09T04:22:23.311Z,100.00
2023-04-09T04:24:50.850Z,100.00
2023-04-09T04:27:17.457Z,100.00
2023-04-09T04:29:44.092Z,100.00
2023-04-09T04:32:10.828Z,100.00
2023-04-09T04:34:37.420Z,100.00
2023-04-09T04:37:04.236Z,100.00
2023-04-09T04:39:31.379Z,100.00
2023-04-09T04:41:58.005Z,100.00
2023-04-09T04:44:24.630Z,100.00
2023-04-09T04:46:51.374Z,100.00
2023-04-09T04:49:18.041Z,100.00
2023-04-09T04:51:44.776Z,100.00
2023-04-09T04:54:11.468Z,100.00
2023-04-09T04:56:38.137Z,100.00
2023-04-09T04:59:04.840Z,100.00
2023-04-09T05:01:31.615Z,100.00
2023-04-09T05:03:58.415Z,100.00
2023-04-09T05:06:25.056Z,100.00
2023-04-09T05:08:52.016Z,100.00
2023-04-09T05:11:19.028Z,100.00
2023-04-09T05:13:45.640Z,100.00
2023-04-09T05:16:19.997Z,100.00
2023-04-09T05:18:47.245Z,100.00
2023-04-09T05:21:14.001Z,100.00
2023-04-09T05:23:40.606Z,100.00
2023-04-09T05:26:07.279Z,100.00
2023-04-09T05:28:34.041Z,100.00
2023-04-09T05:31:00.705Z,100.00
2023-04-09T05:33:27.451Z,100.00
2023-04-09T05:35:54.156Z,100.00
2023-04-09T05:38:20.841Z,100.00
2023-04-09T05:40:47.483Z,100.00
2023-04-09T05:43:14.159Z,100.00
2023-04-09T05:45:40.902Z,100.00
2023-04-09T05:48:07.580Z,100.00
2023-04-09T05:50:40.853Z,100.00
2023-04-09T05:53:19.009Z,100.00
2023-04-09T05:55:46.210Z,100.00
2023-04-09T05:58:13.395Z,100.00
2023-04-09T06:00:40.144Z,100.00
2023-04-09T06:03:06.887Z,100.00
2023-04-09T06:05:33.633Z,100.00
2023-04-09T06:08:00.380Z,100.00
2023-04-09T06:10:27.455Z,100.00
2023-04-09T06:12:54.193Z,100.00
2023-04-09T06:15:20.884Z,100.00
2023-04-09T06:17:47.677Z,100.00
2023-04-09T06:20:14.362Z,100.00
2023-04-09T06:22:40.960Z,100.00
2023-04-09T06:25:08.091Z,100.00
2023-04-09T06:27:34.774Z,100.00
2023-04-09T06:30:01.430Z,100.00
2023-04-09T06:32:28.094Z,100.00
2023-04-09T06:34:54.817Z,100.00
2023-04-09T06:37:21.448Z,100.00
2023-04-09T06:40:00.294Z,100.00
2023-04-09T06:42:27.399Z,100.00
2023-04-09T06:44:54.052Z,100.00
2023-04-09T06:47:20.630Z,100.00
2023-04-09T06:49:47.274Z,100.00
2023-04-09T06:52:13.914Z,100.00
2023-04-09T06:54:40.560Z,100.00
2023-04-09T06:57:07.383Z,100.00
2023-04-09T06:59:34.042Z,100.00
2023-04-09T07:02:01.309Z,100.00
2023-04-09T07:06:54.605Z,100.00
2023-04-09T07:09:21.313Z,100.00
2023-04-09T07:11:47.975Z,100.00
2023-04-09T07:14:14.720Z,100.00
2023-04-09T07:16:41.411Z,100.00
2023-04-09T07:19:08.191Z,100.00
2023-04-09T07:21:35.024Z,100.00
2023-04-09T07:24:01.617Z,100.00
2023-04-09T07:26:28.262Z,100.00
2023-04-09T07:28:55.040Z,100.00
2023-04-09T07:31:22.067Z,100.00
2023-04-09T07:33:48.871Z,100.00
2023-04-09T07:36:15.618Z,100.00
2023-04-09T07:38:42.394Z,100.00
2023-04-09T07:41:11.321Z,100.00
2023-04-09T07:43:37.943Z,100.00
2023-04-09T07:46:04.649Z,100.00
2023-04-09T07:48:31.312Z,100.00
2023-04-09T07:50:57.972Z,100.00
2023-04-09T07:53:24.965Z,100.00
2023-04-09T07:55:51.853Z,100.00
2023-04-09T07:58:18.526Z,100.00
2023-04-09T08:00:45.278Z,100.00
2023-04-09T08:03:12.084Z,100.00
2023-04-09T08:05:38.988Z,100.00
2023-04-09T08:08:05.869Z,100.00
2023-04-09T08:10:32.536Z,100.00
2023-04-09T08:12:59.174Z,100.00
2023-04-09T08:15:25.851Z,100.00
2023-04-09T08:17:52.612Z,100.00
2023-04-09T08:20:19.501Z,100.00
2023-04-09T08:22:47.857Z,100.00
2023-04-09T08:25:14.521Z,100.00
2023-04-09T08:27:41.171Z,100.00
2023-04-09T08:30:08.624Z,100.00
2023-04-09T08:32:35.241Z,98.76
2023-04-09T08:35:01.919Z,92.07
2023-04-09T08:37:28.577Z,91.10
2023-04-09T08:39:55.259Z,92.91
2023-04-09T08:42:22.776Z,96.70
2023-04-09T08:44:50.554Z,96.68
2023-04-09T08:47:18.511Z,92.80
2023-04-09T08:49:45.228Z,97.18
2023-04-09T08:52:12.169Z,97.58
2023-04-09T08:54:38.822Z,94.33
2023-04-09T08:57:06.177Z,94.94
2023-04-09T08:59:32.918Z,92.14
2023-04-09T09:02:12.549Z,93.74
2023-04-09T09:04:47.336Z,91.99
2023-04-09T09:07:14.486Z,90.12
2023-04-09T09:09:58.378Z,90.81
2023-04-09T09:12:35.857Z,88.51
2023-04-09T09:15:02.997Z,92.20
2023-04-09T09:17:29.912Z,92.50
2023-04-09T09:19:56.590Z,91.55
2023-04-09T09:22:24.238Z,90.83
2023-04-09T09:24:52.539Z,92.15
2023-04-09T09:27:32.194Z,88.43
2023-04-09T09:29:59.620Z,90.93
2023-04-09T09:32:26.582Z,93.16
2023-04-09T09:35:05.130Z,86.99
2023-04-09T09:37:32.471Z,85.18
2023-04-09T09:39:59.859Z,87.89
2023-04-09T09:42:26.678Z,89.15
2023-04-09T09:44:54.160Z,89.32
2023-04-09T09:47:22.613Z,83.06
2023-04-09T09:49:49.622Z,88.47
2023-04-09T09:52:19.473Z,87.50
2023-04-09T09:54:52.086Z,86.72
2023-04-09T09:57:20.001Z,86.45
2023-04-09T09:59:54.185Z,88.40
2023-04-09T10:02:23.588Z,92.32
2023-04-09T10:04:51.087Z,78.72
2023-04-09T10:07:17.997Z,85.63
2023-04-09T10:09:49.747Z,83.56
2023-04-09T10:12:19.487Z,88.45
2023-04-09T10:14:46.766Z,89.20
2023-04-09T10:17:13.546Z,83.11
2023-04-09T10:19:46.600Z,78.54
2023-04-09T10:22:18.486Z,79.65
2023-04-09T10:24:46.542Z,80.93
2023-04-09T10:27:17.371Z,80.26
2023-04-09T10:29:46.446Z,81.92
2023-04-09T10:32:19.069Z,76.31
2023-04-09T10:34:45.738Z,79.92
2023-04-09T10:37:20.469Z,81.34
2023-04-09T10:39:48.763Z,80.25
2023-04-09T10:42:39.440Z,84.97
2023-04-09T10:45:13.553Z,80.71
2023-04-09T10:47:42.372Z,81.50
2023-04-09T10:50:15.969Z,80.38
2023-04-09T10:52:43.028Z,80.01
2023-04-09T10:55:10.409Z,82.30
2023-04-09T10:57:37.241Z,85.79
2023-04-09T11:00:04.218Z,84.66
2023-04-09T11:02:45.347Z,86.81
2023-04-09T11:05:35.972Z,88.81
2023-04-09T11:08:09.627Z,88.75
2023-04-09T11:10:41.619Z,87.73
2023-04-09T11:13:14.981Z,87.91
2023-04-09T11:15:42.176Z,88.19
2023-04-09T11:18:09.023Z,84.59
2023-04-09T11:20:36.388Z,87.61
2023-04-09T11:23:03.602Z,85.39
2023-04-09T11:25:32.283Z,85.63
2023-04-09T11:27:59.778Z,82.91
2023-04-09T11:30:26.448Z,80.72
2023-04-09T11:32:53.222Z,81.46
2023-04-09T11:35:22.246Z,76.65
2023-04-09T11:37:50.013Z,77.69
2023-04-09T11:40:18.855Z,79.21
2023-04-09T11:42:48.248Z,81.15
2023-04-09T11:45:16.074Z,80.64
2023-04-09T11:47:44.141Z,80.81
2023-04-09T11:50:12.481Z,74.78
2023-04-09T11:52:39.944Z,81.27
2023-04-09T11:55:06.997Z,80.11
2023-04-09T11:57:40.903Z,81.08
2023-04-09T12:00:12.976Z,82.04
2023-04-09T12:02:50.304Z,82.84
2023-04-09T12:05:29.855Z,81.49
2023-04-09T12:08:07.456Z,82.07
2023-04-09T12:10:37.837Z,80.57
2023-04-09T12:13:09.504Z,81.85
2023-04-09T12:15:37.908Z,77.97
2023-04-09T12:18:08.718Z,77.61
2023-04-09T12:20:42.586Z,76.64
2023-04-09T12:23:12.770Z,76.25
2023-04-09T12:25:44.442Z,77.55
2023-04-09T12:28:15.850Z,74.25
2023-04-09T12:30:42.774Z,74.22
2023-04-09T12:33:10.926Z,71.66
2023-04-09T12:35:38.736Z,75.94
2023-04-09T12:38:05.825Z,72.20
2023-04-09T12:40:32.513Z,75.37
2023-04-09T12:42:59.321Z,72.83
2023-04-09T12:45:25.951Z,66.77
2023-04-09T12:47:52.716Z,74.72
2023-04-09T12:50:19.582Z,68.18
2023-04-09T12:52:46.798Z,67.74
2023-04-09T12:55:14.794Z,69.90
2023-04-09T12:57:44.593Z,69.21
2023-04-09T13:00:13.516Z,71.63
2023-04-09T13:02:40.345Z,66.82
2023-04-09T13:05:07.340Z,63.72
2023-04-09T13:07:34.017Z,64.99
2023-04-09T13:10:00.775Z,60.07
2023-04-09T13:12:27.483Z,67.05
2023-04-09T13:14:54.864Z,64.69
2023-04-09T13:17:22.388Z,63.08
2023-04-09T13:19:50.373Z,61.17
2023-04-09T13:22:17.682Z,59.86
2023-04-09T13:24:44.322Z,62.10
2023-04-09T13:27:10.976Z,63.00
2023-04-09T13:29:37.783Z,64.79
2023-04-09T13:32:04.572Z,61.90
2023-04-09T13:34:31.197Z,61.18
2023-04-09T13:36:57.852Z,59.59
2023-04-09T13:39:24.554Z,59.43
2023-04-09T13:41:51.238Z,59.43
2023-04-09T13:44:18.093Z,61.97
2023-04-09T13:46:44.685Z,56.48
2023-04-09T13:49:11.419Z,61.75
2023-04-09T13:51:38.181Z,61.72
2023-04-09T13:54:06.023Z,59.34
2023-04-09T13:56:32.862Z,59.00
2023-04-09T13:58:59.510Z,58.97
2023-04-09T14:01:26.161Z,59.52
2023-04-09T14:03:53.267Z,62.20
2023-04-09T14:06:20.166Z,62.88
2023-04-09T14:08:46.787Z,62.24
2023-04-09T14:11:13.721Z,59.30
2023-04-09T14:13:40.782Z,58.84
2023-04-09T14:16:08.623Z,59.29
2023-04-09T14:18:35.313Z,59.70
2023-04-09T14:21:02.090Z,59.59
2023-04-09T14:23:28.740Z,56.48
2023-04-09T14:25:55.368Z,54.75
2023-04-09T14:28:22.079Z,56.62
2023-04-09T14:30:49.015Z,60.48
2023-04-09T14:33:15.681Z,63.25
2023-04-09T14:35:42.507Z,63.15
2023-04-09T14:38:09.302Z,62.62
2023-04-09T14:40:36.676Z,62.32
2023-04-09T14:43:03.451Z,60.84
2023-04-09T14:45:30.808Z,60.10
2023-04-09T14:47:57.824Z,62.50
2023-04-09T14:50:24.640Z,62.23
2023-04-09T14:52:51.339Z,61.54
2023-04-09T14:55:18.252Z,63.08
2023-04-09T14:57:44.906Z,61.58
2023-04-09T15:00:12.598Z,60.47
2023-04-09T15:02:39.786Z,63.28
2023-04-09T15:05:07.379Z,62.69
2023-04-09T15:07:34.224Z,62.83
2023-04-09T15:10:00.900Z,63.59
2023-04-09T15:12:29.057Z,61.36
2023-04-09T15:14:56.249Z,60.07
2023-04-09T15:17:23.706Z,59.80
2023-04-09T15:19:50.450Z,61.23
2023-04-09T15:22:17.059Z,63.60
2023-04-09T15:24:43.724Z,62.89
2023-04-09T15:27:10.439Z,63.55
2023-04-09T15:29:37.078Z,66.09
2023-04-09T15:32:03.873Z,64.77
2023-04-09T15:34:30.505Z,65.33
2023-04-09T15:36:57.122Z,62.90
2023-04-09T15:39:24.007Z,66.10
2023-04-09T15:41:50.742Z,66.18
2023-04-09T15:44:17.464Z,66.51
2023-04-09T15:46:44.136Z,66.06
2023-04-09T15:49:10.789Z,67.04
2023-04-09T15:51:37.492Z,68.11
2023-04-09T15:54:04.109Z,67.15
2023-04-09T15:56:30.782Z,66.47
2023-04-09T15:58:59.673Z,68.31
2023-04-09T16:01:26.348Z,69.38
2023-04-09T16:03:53.032Z,70.30
2023-04-09T16:06:19.763Z,69.91
2023-04-09T16:08:46.379Z,70.37
2023-04-09T16:11:13.059Z,70.00
2023-04-09T16:13:39.783Z,69.70
2023-04-09T16:16:06.907Z,70.11
2023-04-09T16:18:34.498Z,72.18
2023-04-09T16:21:01.252Z,71.63
2023-04-09T16:23:30.315Z,70.86
2023-04-09T16:25:57.412Z,72.37
2023-04-09T16:28:24.161Z,71.84
2023-04-09T16:30:50.853Z,70.38
2023-04-09T16:33:17.524Z,72.54
2023-04-09T16:35:44.522Z,73.41
2023-04-09T16:38:11.331Z,72.24
2023-04-09T16:40:38.056Z,74.75
2023-04-09T16:43:04.948Z,74.31
2023-04-09T16:45:31.641Z,73.82
2023-04-09T16:47:58.582Z,75.36
2023-04-09T16:50:25.352Z,74.11
2023-04-09T16:52:51.976Z,73.38
2023-04-09T16:55:18.767Z,73.83
2023-04-09T16:57:45.407Z,72.27
2023-04-09T17:00:13.197Z,74.46
2023-04-09T17:02:39.862Z,74.98
2023-04-09T17:05:07.070Z,75.53
2023-04-09T17:07:33.693Z,74.58
2023-04-09T17:10:00.345Z,74.79
2023-04-09T17:12:26.988Z,76.10
2023-04-09T17:14:53.645Z,76.22
2023-04-09T17:17:20.630Z,76.54
2023-04-09T17:19:47.252Z,76.99
2023-04-09T17:22:13.951Z,77.21
2023-04-09T17:24:40.666Z,75.56
2023-04-09T17:27:07.395Z,75.60
2023-04-09T17:29:34.433Z,75.94
2023-04-09T17:32:01.147Z,76.55
2023-04-09T17:34:27.948Z,76.42
2023-04-09T17:36:54.564Z,77.06
2023-04-09T17:39:21.269Z,78.21
2023-04-09T17:41:47.957Z,78.42
2023-04-09T17:44:14.653Z,77.37
2023-04-09T17:46:41.297Z,78.92
2023-04-09T17:49:08.089Z,78.45
2023-04-09T17:51:37.522Z,79.01
2023-04-09T17:54:04.239Z,79.23
2023-04-09T17:56:30.881Z,78.66
2023-04-09T17:58:57.549Z,78.43
2023-04-09T18:01:24.230Z,78.69
2023-04-09T18:03:51.166Z,78.82
2023-04-09T18:06:18.072Z,78.36
2023-04-09T18:08:44.725Z,78.73
2023-04-09T18:11:13.146Z,78.41
2023-04-09T18:13:40.421Z,78.16
2023-04-09T18:16:10.975Z,78.03
2023-04-09T18:18:38.264Z,77.29
2023-04-09T18:21:05.318Z,77.73
2023-04-09T18:23:32.263Z,79.73
2023-04-09T18:25:58.964Z,79.44
2023-04-09T18:28:25.699Z,78.96
2023-04-09T18:30:52.333Z,78.52
2023-04-09T18:33:19.390Z,78.99
2023-04-09T18:35:46.003Z,79.61
2023-04-09T18:38:12.740Z,79.79
2023-04-09T18:40:45.568Z,80.06
2023-04-09T18:43:12.178Z,78.96
2023-04-09T18:45:39.178Z,78.36
2023-04-09T18:48:05.918Z,79.42
2023-04-09T18:50:34.763Z,79.31
2023-04-09T18:53:04.468Z,79.40
2023-04-09T18:55:32.034Z,80.95
2023-04-09T18:57:58.682Z,81.52
2023-04-09T19:00:25.321Z,80.65
2023-04-09T19:02:52.218Z,80.30
2023-04-09T19:05:19.082Z,81.48
2023-04-09T19:07:45.804Z,81.06
2023-04-09T19:10:13.408Z,80.56
2023-04-09T19:12:40.015Z,81.19
2023-04-09T19:15:07.173Z,81.43
2023-04-09T19:17:33.809Z,81.65
2023-04-09T19:20:00.575Z,81.40
2023-04-09T19:22:27.189Z,82.38
2023-04-09T19:24:53.819Z,82.36
2023-04-09T19:27:20.535Z,83.13
2023-04-09T19:29:47.204Z,82.00
2023-04-09T19:32:13.894Z,82.38
2023-04-09T19:34:40.693Z,82.59
2023-04-09T19:37:07.352Z,82.83
2023-04-09T19:39:34.027Z,83.55
2023-04-09T19:42:00.790Z,83.25
2023-04-09T19:44:27.476Z,83.28
2023-04-09T19:46:54.279Z,82.78
2023-04-09T19:49:20.969Z,83.63
2023-04-09T19:51:49.219Z,83.88
2023-04-09T19:54:15.928Z,84.42
2023-04-09T19:56:42.575Z,84.75
2023-04-09T19:59:09.212Z,84.81
2023-04-09T20:01:35.909Z,85.48
2023-04-09T20:04:02.980Z,85.56
2023-04-09T20:06:29.840Z,85.04
2023-04-09T20:08:56.578Z,85.52
2023-04-09T20:11:23.211Z,85.60
2023-04-09T20:13:49.896Z,85.63
2023-04-09T20:16:16.624Z,86.11
2023-04-09T20:18:43.353Z,85.52
2023-04-09T20:21:09.953Z,86.62
2023-04-09T20:23:36.661Z,87.27
2023-04-09T20:26:03.507Z,87.13
2023-04-09T20:28:30.154Z,86.35
2023-04-09T20:30:56.780Z,85.42
2023-04-09T20:33:23.401Z,85.54
2023-04-09T20:35:50.046Z,85.89
2023-04-09T20:38:16.691Z,86.20
2023-04-09T20:40:43.333Z,86.48
2023-04-09T20:43:10.003Z,86.76
2023-04-09T20:45:36.761Z,86.81
2023-04-09T20:48:03.796Z,87.99
2023-04-09T20:50:30.840Z,87.53
2023-04-09T20:52:58.541Z,87.59
2023-04-09T20:55:25.604Z,87.20
2023-04-09T20:57:56.192Z,87.08
2023-04-09T21:00:22.946Z,87.10
2023-04-09T21:02:49.966Z,87.26
2023-04-09T21:05:23.433Z,87.10
2023-04-09T21:07:52.807Z,87.37
2023-04-09T21:10:20.012Z,85.98
2023-04-09T21:12:46.732Z,86.61
2023-04-09T21:15:13.352Z,87.48
2023-04-09T21:17:40.050Z,87.77
2023-04-09T21:20:07.268Z,88.95
2023-04-09T21:22:34.738Z,89.88
2023-04-09T21:25:01.464Z,89.90
2023-04-09T21:27:28.090Z,89.63
2023-04-09T21:29:54.972Z,88.97
2023-04-09T21:32:21.733Z,89.12
2023-04-09T21:34:48.392Z,88.04
2023-04-09T21:37:15.220Z,88.21
2023-04-09T21:39:41.838Z,89.73
2023-04-09T21:42:08.509Z,88.51
2023-04-09T21:44:35.127Z,89.03
2023-04-09T21:47:01.862Z,90.26
2023-04-09T21:49:28.619Z,90.17
2023-04-09T21:51:55.377Z,89.76
2023-04-09T21:54:22.061Z,90.19
2023-04-09T21:56:48.693Z,90.05
2023-04-09T21:59:15.413Z,89.32
2023-04-09T22:01:42.097Z,88.80
2023-04-09T22:04:08.939Z,89.41
2023-04-09T22:06:35.737Z,89.69
2023-04-09T22:09:02.818Z,89.56
2023-04-09T22:11:29.681Z,90.04
2023-04-09T22:13:57.679Z,90.21
2023-04-09T22:16:24.977Z,90.72
2023-04-09T22:18:52.945Z,90.93
2023-04-09T22:21:19.823Z,92.37
2023-04-09T22:23:46.531Z,91.76
2023-04-09T22:26:13.158Z,91.36
2023-04-09T22:28:39.863Z,90.75
2023-04-09T22:31:06.797Z,90.19
2023-04-09T22:33:33.481Z,90.88
2023-04-09T22:36:00.287Z,92.06
2023-04-09T22:38:26.971Z,90.75
2023-04-09T22:40:53.871Z,90.89
2023-04-09T22:43:20.571Z,91.13
2023-04-09T22:45:54.670Z,91.79
2023-04-09T22:48:22.507Z,92.90
2023-04-09T22:50:50.285Z,92.97
2023-04-09T22:53:17.725Z,91.89
2023-04-09T22:55:47.773Z,91.78
2023-04-09T22:58:14.801Z,91.30
2023-04-09T23:00:41.647Z,90.83
2023-04-09T23:03:09.047Z,90.46
2023-04-09T23:05:36.176Z,89.90
2023-04-09T23:08:02.833Z,89.56
2023-04-09T23:10:29.650Z,90.20
2023-04-09T23:12:56.823Z,90.42
2023-04-09T23:15:23.445Z,89.46
2023-04-09T23:17:53.225Z,90.28
2023-04-09T23:20:20.002Z,92.13
2023-04-09T23:22:47.401Z,92.52
2023-04-09T23:25:14.950Z,92.75
2023-04-09T23:27:41.614Z,92.13
2023-04-09T23:30:08.699Z,91.70
2023-04-09T23:32:35.718Z,93.29
2023-04-09T23:35:02.788Z,95.17
2023-04-09T23:37:29.588Z,95.87
2023-04-09T23:39:56.264Z,98.90
2023-04-09T23:42:22.871Z,99.85
2023-04-09T23:44:49.519Z,100.00
2023-04-09T23:47:16.172Z,100.00
2023-04-09T23:49:42.950Z,100.00
2023-04-09T23:52:09.655Z,100.00
2023-04-09T23:54:36.396Z,100.00
2023-04-09T23:57:03.142Z,100.00
2023-04-09T23:59:29.821Z,99.25
